sensor_id;sensor_type;location;lat;lon;timestamp;temperature;humidity
67870;DHT22;54673;52.262;6.830;2023-11-18T00:02:23;4.00;99.90
67870;DHT22;54673;52.262;6.830;2023-11-18T00:04:50;4.00;99.90
67870;DHT22;54673;52.262;6.830;2023-11-18T00:07:16;4.00;99.90
67870;DHT22;54673;52.262;6.830;2023-11-18T00:09:42;4.00;99.90
67870;DHT22;54673;52.262;6.830;2023-11-18T00:12:12;4.00;99.90
67870;DHT22;54673;52.262;6.830;2023-11-18T00:14:37;4.00;99.90
67870;DHT22;54673;52.262;6.830;2023-11-18T00:17:03;4.00;99.90
67870;DHT22;54673;52.262;6.830;2023-11-18T00:19:30;4.00;99.90
67870;DHT22;54673;52.262;6.830;2023-11-18T00:21:55;4.00;99.90
67870;DHT22;54673;52.262;6.830;2023-11-18T00:24:21;4.00;99.90
67870;DHT22;54673;52.262;6.830;2023-11-18T00:26:46;4.00;99.90
67870;DHT22;54673;52.262;6.830;2023-11-18T00:29:12;4.00;99.90
67870;DHT22;54673;52.262;6.830;2023-11-18T00:31:38;4.00;99.90
67870;DHT22;54673;52.262;6.830;2023-11-18T00:34:03;4.00;99.90
67870;DHT22;54673;52.262;6.830;2023-11-18T00:36:29;3.90;99.90
67870;DHT22;54673;52.262;6.830;2023-11-18T00:38:55;3.90;99.90
67870;DHT22;54673;52.262;6.830;2023-11-18T00:41:20;3.90;99.90
67870;DHT22;54673;52.262;6.830;2023-11-18T00:43:46;3.90;99.90
67870;DHT22;54673;52.262;6.830;2023-11-18T00:46:12;4.50;99.90
67870;DHT22;54673;52.262;6.830;2023-11-18T00:48:38;3.90;99.90
67870;DHT22;54673;52.262;6.830;2023-11-18T00:51:05;3.90;99.90
67870;DHT22;54673;52.262;6.830;2023-11-18T00:53:31;3.90;99.90
67870;DHT22;54673;52.262;6.830;2023-11-18T00:55:57;4.30;99.90
67870;DHT22;54673;52.262;6.830;2023-11-18T00:58:22;3.90;99.90
67870;DHT22;54673;52.262;6.830;2023-11-18T01:00:48;3.90;99.90
67870;DHT22;54673;52.262;6.830;2023-11-18T01:03:13;3.90;99.90
67870;DHT22;54673;52.262;6.830;2023-11-18T01:05:39;3.80;99.90
67870;DHT22;54673;52.262;6.830;2023-11-18T01:08:05;3.90;99.90
67870;DHT22;54673;52.262;6.830;2023-11-18T01:10:30;3.90;99.90
67870;DHT22;54673;52.262;6.830;2023-11-18T01:12:56;3.90;99.90
67870;DHT22;54673;52.262;6.830;2023-11-18T01:15:23;3.90;99.90
67870;DHT22;54673;52.262;6.830;2023-11-18T01:17:49;3.90;99.90
67870;DHT22;54673;52.262;6.830;2023-11-18T01:20:14;3.80;99.90
67870;DHT22;54673;52.262;6.830;2023-11-18T01:22:46;3.90;99.90
67870;DHT22;54673;52.262;6.830;2023-11-18T01:25:12;3.80;99.90
67870;DHT22;54673;52.262;6.830;2023-11-18T01:27:38;3.80;99.90
67870;DHT22;54673;52.262;6.830;2023-11-18T01:30:05;3.80;99.90
67870;DHT22;54673;52.262;6.830;2023-11-18T01:32:31;3.80;99.90
67870;DHT22;54673;52.262;6.830;2023-11-18T01:34:57;3.80;99.90
67870;DHT22;54673;52.262;6.830;2023-11-18T01:37:23;5.00;99.90
67870;DHT22;54673;52.262;6.830;2023-11-18T01:39:49;3.80;99.90
67870;DHT22;54673;52.262;6.830;2023-11-18T01:42:15;3.80;99.90
67870;DHT22;54673;52.262;6.830;2023-11-18T01:44:41;3.80;99.90
67870;DHT22;54673;52.262;6.830;2023-11-18T01:47:08;3.80;99.90
67870;DHT22;54673;52.262;6.830;2023-11-18T01:49:38;3.80;99.90
67870;DHT22;54673;52.262;6.830;2023-11-18T01:52:10;3.70;99.90
67870;DHT22;54673;52.262;6.830;2023-11-18T01:54:38;3.80;99.90
67870;DHT22;54673;52.262;6.830;2023-11-18T01:57:05;3.00;99.90
67870;DHT22;54673;52.262;6.830;2023-11-18T01:59:35;3.70;99.90
67870;DHT22;54673;52.262;6.830;2023-11-18T02:02:01;3.70;99.90
67870;DHT22;54673;52.262;6.830;2023-11-18T02:04:27;3.80;99.90
67870;DHT22;54673;52.262;6.830;2023-11-18T02:06:53;4.90;99.90
67870;DHT22;54673;52.262;6.830;2023-11-18T02:09:21;3.70;99.90
67870;DHT22;54673;52.262;6.830;2023-11-18T02:14:39;3.70;99.90
67870;DHT22;54673;52.262;6.830;2023-11-18T02:17:06;3.70;99.90
67870;DHT22;54673;52.262;6.830;2023-11-18T02:20:57;3.70;99.90
67870;DHT22;54673;52.262;6.830;2023-11-18T02:23:27;3.70;99.90
67870;DHT22;54673;52.262;6.830;2023-11-18T02:25:53;3.70;99.90
67870;DHT22;54673;52.262;6.830;2023-11-18T02:28:19;3.70;99.90
67870;DHT22;54673;52.262;6.830;2023-11-18T02:30:45;3.70;99.90
67870;DHT22;54673;52.262;6.830;2023-11-18T02:33:29;4.60;99.90
67870;DHT22;54673;52.262;6.830;2023-11-18T02:36:16;3.70;99.90
67870;DHT22;54673;52.262;6.830;2023-11-18T02:38:49;3.70;99.90
67870;DHT22;54673;52.262;6.830;2023-11-18T02:41:16;3.70;99.90
67870;DHT22;54673;52.262;6.830;2023-11-18T02:43:44;3.70;99.90
67870;DHT22;54673;52.262;6.830;2023-11-18T02:46:11;3.70;99.90
67870;DHT22;54673;52.262;6.830;2023-11-18T02:48:38;3.70;99.90
67870;DHT22;54673;52.262;6.830;2023-11-18T02:51:04;3.70;99.90
67870;DHT22;54673;52.262;6.830;2023-11-18T02:53:33;3.70;99.90
67870;DHT22;54673;52.262;6.830;2023-11-18T02:55:59;3.70;99.90
67870;DHT22;54673;52.262;6.830;2023-11-18T02:58:29;3.70;99.90
67870;DHT22;54673;52.262;6.830;2023-11-18T03:00:55;3.70;99.90
67870;DHT22;54673;52.262;6.830;2023-11-18T03:03:20;3.70;99.90
67870;DHT22;54673;52.262;6.830;2023-11-18T03:05:46;3.70;99.90
67870;DHT22;54673;52.262;6.830;2023-11-18T03:08:15;3.70;99.90
67870;DHT22;54673;52.262;6.830;2023-11-18T03:10:41;3.70;99.90
67870;DHT22;54673;52.262;6.830;2023-11-18T03:13:10;3.70;99.90
67870;DHT22;54673;52.262;6.830;2023-11-18T03:15:36;3.70;99.90
67870;DHT22;54673;52.262;6.830;2023-11-18T03:18:01;3.70;99.90
67870;DHT22;54673;52.262;6.830;2023-11-18T03:20:27;4.20;99.90
67870;DHT22;54673;52.262;6.830;2023-11-18T03:22:54;3.70;99.90
67870;DHT22;54673;52.262;6.830;2023-11-18T03:25:20;3.70;99.90
67870;DHT22;54673;52.262;6.830;2023-11-18T03:27:47;3.70;99.90
67870;DHT22;54673;52.262;6.830;2023-11-18T03:30:13;3.70;99.90
67870;DHT22;54673;52.262;6.830;2023-11-18T03:32:40;3.70;99.90
67870;DHT22;54673;52.262;6.830;2023-11-18T03:35:06;4.20;99.90
67870;DHT22;54673;52.262;6.830;2023-11-18T03:37:40;3.70;99.90
67870;DHT22;54673;52.262;6.830;2023-11-18T03:40:14;3.70;99.90
67870;DHT22;54673;52.262;6.830;2023-11-18T03:42:43;3.70;99.90
67870;DHT22;54673;52.262;6.830;2023-11-18T03:45:11;3.70;99.90
67870;DHT22;54673;52.262;6.830;2023-11-18T03:47:37;3.70;99.90
67870;DHT22;54673;52.262;6.830;2023-11-18T03:50:03;3.70;99.90
67870;DHT22;54673;52.262;6.830;2023-11-18T03:52:29;3.70;99.90
67870;DHT22;54673;52.262;6.830;2023-11-18T03:54:54;3.70;99.90
67870;DHT22;54673;52.262;6.830;2023-11-18T03:57:20;3.70;99.90
67870;DHT22;54673;52.262;6.830;2023-11-18T03:59:46;3.70;99.90
67870;DHT22;54673;52.262;6.830;2023-11-18T04:02:12;3.70;99.90
67870;DHT22;54673;52.262;6.830;2023-11-18T04:04:38;3.70;99.90
67870;DHT22;54673;52.262;6.830;2023-11-18T04:07:04;3.70;99.90
67870;DHT22;54673;52.262;6.830;2023-11-18T04:09:30;3.70;99.90
67870;DHT22;54673;52.262;6.830;2023-11-18T04:11:55;3.70;99.90
67870;DHT22;54673;52.262;6.830;2023-11-18T04:14:21;3.70;99.90
67870;DHT22;54673;52.262;6.830;2023-11-18T04:16:47;3.70;99.90
67870;DHT22;54673;52.262;6.830;2023-11-18T04:19:13;3.70;99.90
67870;DHT22;54673;52.262;6.830;2023-11-18T04:21:38;3.70;99.90
67870;DHT22;54673;52.262;6.830;2023-11-18T04:24:05;3.70;99.90
67870;DHT22;54673;52.262;6.830;2023-11-18T04:26:31;3.70;99.90
67870;DHT22;54673;52.262;6.830;2023-11-18T04:28:59;3.70;99.90
67870;DHT22;54673;52.262;6.830;2023-11-18T04:31:25;3.70;99.90
67870;DHT22;54673;52.262;6.830;2023-11-18T04:33:50;3.70;99.90
67870;DHT22;54673;52.262;6.830;2023-11-18T04:36:16;3.70;99.90
67870;DHT22;54673;52.262;6.830;2023-11-18T04:38:42;3.60;99.90
67870;DHT22;54673;52.262;6.830;2023-11-18T04:41:11;4.50;99.90
67870;DHT22;54673;52.262;6.830;2023-11-18T04:43:37;3.70;99.90
67870;DHT22;54673;52.262;6.830;2023-11-18T04:46:05;3.60;99.90
67870;DHT22;54673;52.262;6.830;2023-11-18T04:48:31;4.00;99.90
67870;DHT22;54673;52.262;6.830;2023-11-18T04:50:58;3.60;99.90
67870;DHT22;54673;52.262;6.830;2023-11-18T04:53:23;3.60;99.90
67870;DHT22;54673;52.262;6.830;2023-11-18T04:55:51;3.60;99.90
67870;DHT22;54673;52.262;6.830;2023-11-18T04:58:16;4.80;99.90
67870;DHT22;54673;52.262;6.830;2023-11-18T05:00:42;3.60;99.90
67870;DHT22;54673;52.262;6.830;2023-11-18T05:03:08;4.90;99.90
67870;DHT22;54673;52.262;6.830;2023-11-18T05:05:40;3.60;99.90
67870;DHT22;54673;52.262;6.830;2023-11-18T05:08:06;3.80;99.90
67870;DHT22;54673;52.262;6.830;2023-11-18T05:10:33;3.60;99.90
67870;DHT22;54673;52.262;6.830;2023-11-18T05:12:59;5.00;99.90
67870;DHT22;54673;52.262;6.830;2023-11-18T05:15:24;3.60;99.90
67870;DHT22;54673;52.262;6.830;2023-11-18T05:17:53;2.90;99.90
67870;DHT22;54673;52.262;6.830;2023-11-18T05:20:20;3.60;99.90
67870;DHT22;54673;52.262;6.830;2023-11-18T05:22:46;3.60;99.90
67870;DHT22;54673;52.262;6.830;2023-11-18T05:25:12;3.60;99.90
67870;DHT22;54673;52.262;6.830;2023-11-18T05:27:38;3.60;99.90
67870;DHT22;54673;52.262;6.830;2023-11-18T05:30:06;3.60;99.90
67870;DHT22;54673;52.262;6.830;2023-11-18T05:32:33;3.60;99.90
67870;DHT22;54673;52.262;6.830;2023-11-18T05:34:59;3.60;99.90
67870;DHT22;54673;52.262;6.830;2023-11-18T05:37:25;3.60;99.90
67870;DHT22;54673;52.262;6.830;2023-11-18T05:39:51;3.60;99.90
67870;DHT22;54673;52.262;6.830;2023-11-18T05:42:25;3.60;99.90
67870;DHT22;54673;52.262;6.830;2023-11-18T05:44:51;3.60;99.90
67870;DHT22;54673;52.262;6.830;2023-11-18T05:47:23;3.60;99.90
67870;DHT22;54673;52.262;6.830;2023-11-18T05:49:49;3.60;99.90
67870;DHT22;54673;52.262;6.830;2023-11-18T05:52:14;3.60;99.90
67870;DHT22;54673;52.262;6.830;2023-11-18T05:54:40;3.60;99.90
67870;DHT22;54673;52.262;6.830;2023-11-18T05:57:06;3.60;99.90
67870;DHT22;54673;52.262;6.830;2023-11-18T05:59:32;3.60;99.90
67870;DHT22;54673;52.262;6.830;2023-11-18T06:01:58;3.60;99.90
67870;DHT22;54673;52.262;6.830;2023-11-18T06:04:23;3.60;99.90
67870;DHT22;54673;52.262;6.830;2023-11-18T06:06:49;3.60;99.90
67870;DHT22;54673;52.262;6.830;2023-11-18T06:09:15;3.60;99.90
67870;DHT22;54673;52.262;6.830;2023-11-18T06:11:47;3.60;99.90
67870;DHT22;54673;52.262;6.830;2023-11-18T06:14:12;3.60;99.90
67870;DHT22;54673;52.262;6.830;2023-11-18T06:16:38;3.60;99.90
67870;DHT22;54673;52.262;6.830;2023-11-18T06:19:07;3.60;99.90
67870;DHT22;54673;52.262;6.830;2023-11-18T06:21:33;3.60;99.90
67870;DHT22;54673;52.262;6.830;2023-11-18T06:24:00;3.60;99.90
67870;DHT22;54673;52.262;6.830;2023-11-18T06:26:26;3.60;99.90
67870;DHT22;54673;52.262;6.830;2023-11-18T06:28:53;3.60;99.90
67870;DHT22;54673;52.262;6.830;2023-11-18T06:31:23;3.60;99.90
67870;DHT22;54673;52.262;6.830;2023-11-18T06:33:52;3.60;99.90
67870;DHT22;54673;52.262;6.830;2023-11-18T06:36:18;3.70;99.90
67870;DHT22;54673;52.262;6.830;2023-11-18T06:38:50;3.60;99.90
67870;DHT22;54673;52.262;6.830;2023-11-18T06:41:21;3.60;99.90
67870;DHT22;54673;52.262;6.830;2023-11-18T06:43:48;3.60;99.90
67870;DHT22;54673;52.262;6.830;2023-11-18T06:46:25;3.60;99.90
67870;DHT22;54673;52.262;6.830;2023-11-18T06:48:52;3.60;99.90
67870;DHT22;54673;52.262;6.830;2023-11-18T06:51:23;3.60;99.90
67870;DHT22;54673;52.262;6.830;2023-11-18T06:53:56;3.60;99.90
67870;DHT22;54673;52.262;6.830;2023-11-18T06:56:23;3.60;99.90
67870;DHT22;54673;52.262;6.830;2023-11-18T06:58:49;3.60;99.90
67870;DHT22;54673;52.262;6.830;2023-11-18T07:01:15;3.60;99.90
67870;DHT22;54673;52.262;6.830;2023-11-18T07:03:41;3.60;99.90
67870;DHT22;54673;52.262;6.830;2023-11-18T07:06:07;3.60;99.90
67870;DHT22;54673;52.262;6.830;2023-11-18T07:08:37;3.60;99.90
67870;DHT22;54673;52.262;6.830;2023-11-18T07:11:04;3.60;99.90
67870;DHT22;54673;52.262;6.830;2023-11-18T07:13:31;3.60;99.90
67870;DHT22;54673;52.262;6.830;2023-11-18T07:15:59;3.60;99.90
67870;DHT22;54673;52.262;6.830;2023-11-18T07:18:25;3.70;99.90
67870;DHT22;54673;52.262;6.830;2023-11-18T07:20:51;3.70;99.90
67870;DHT22;54673;52.262;6.830;2023-11-18T07:23:18;3.70;99.90
67870;DHT22;54673;52.262;6.830;2023-11-18T07:25:45;3.70;99.90
67870;DHT22;54673;52.262;6.830;2023-11-18T07:28:13;3.70;99.90
67870;DHT22;54673;52.262;6.830;2023-11-18T07:30:43;3.70;99.90
67870;DHT22;54673;52.262;6.830;2023-11-18T07:33:16;4.00;99.90
67870;DHT22;54673;52.262;6.830;2023-11-18T07:35:45;4.40;99.90
67870;DHT22;54673;52.262;6.830;2023-11-18T07:38:20;3.40;99.90
67870;DHT22;54673;52.262;6.830;2023-11-18T07:41:24;4.20;99.90
67870;DHT22;54673;52.262;6.830;2023-11-18T07:44:02;3.70;99.90
67870;DHT22;54673;52.262;6.830;2023-11-18T07:47:00;3.90;99.90
67870;DHT22;54673;52.262;6.830;2023-11-18T07:49:25;3.60;99.90
67870;DHT22;54673;52.262;6.830;2023-11-18T07:51:52;4.20;99.90
67870;DHT22;54673;52.262;6.830;2023-11-18T07:54:17;3.60;99.90
67870;DHT22;54673;52.262;6.830;2023-11-18T07:56:46;3.70;99.90
67870;DHT22;54673;52.262;6.830;2023-11-18T07:59:24;3.70;99.90
67870;DHT22;54673;52.262;6.830;2023-11-18T08:01:49;3.60;99.90
67870;DHT22;54673;52.262;6.830;2023-11-18T08:04:15;4.30;99.90
67870;DHT22;54673;52.262;6.830;2023-11-18T08:06:46;5.10;99.90
67870;DHT22;54673;52.262;6.830;2023-11-18T08:09:12;3.80;99.90
67870;DHT22;54673;52.262;6.830;2023-11-18T08:11:40;4.40;99.90
67870;DHT22;54673;52.262;6.830;2023-11-18T08:14:09;4.60;99.90
67870;DHT22;54673;52.262;6.830;2023-11-18T08:16:35;4.40;99.90
67870;DHT22;54673;52.262;6.830;2023-11-18T08:19:01;3.70;99.90
67870;DHT22;54673;52.262;6.830;2023-11-18T08:21:34;5.00;99.90
67870;DHT22;54673;52.262;6.830;2023-11-18T08:24:00;3.40;99.90
67870;DHT22;54673;52.262;6.830;2023-11-18T08:26:27;3.90;99.90
67870;DHT22;54673;52.262;6.830;2023-11-18T08:28:52;4.90;99.90
67870;DHT22;54673;52.262;6.830;2023-11-18T08:31:18;3.70;99.90
67870;DHT22;54673;52.262;6.830;2023-11-18T08:33:44;3.70;99.90
67870;DHT22;54673;52.262;6.830;2023-11-18T08:36:11;3.80;99.90
67870;DHT22;54673;52.262;6.830;2023-11-18T08:38:38;4.30;99.90
67870;DHT22;54673;52.262;6.830;2023-11-18T08:41:08;3.90;99.90
67870;DHT22;54673;52.262;6.830;2023-11-18T08:43:38;4.30;99.90
67870;DHT22;54673;52.262;6.830;2023-11-18T08:46:09;4.70;99.90
67870;DHT22;54673;52.262;6.830;2023-11-18T08:48:37;4.60;99.90
67870;DHT22;54673;52.262;6.830;2023-11-18T08:51:15;3.80;99.90
67870;DHT22;54673;52.262;6.830;2023-11-18T08:53:42;5.10;99.90
67870;DHT22;54673;52.262;6.830;2023-11-18T08:56:10;3.70;99.90
67870;DHT22;54673;52.262;6.830;2023-11-18T08:58:41;3.90;99.90
67870;DHT22;54673;52.262;6.830;2023-11-18T09:01:07;3.60;99.90
67870;DHT22;54673;52.262;6.830;2023-11-18T09:03:40;5.10;99.90
67870;DHT22;54673;52.262;6.830;2023-11-18T09:06:14;3.90;99.90
67870;DHT22;54673;52.262;6.830;2023-11-18T09:08:53;3.80;99.90
67870;DHT22;54673;52.262;6.830;2023-11-18T09:11:25;4.40;99.90
67870;DHT22;54673;52.262;6.830;2023-11-18T09:13:58;5.10;99.90
67870;DHT22;54673;52.262;6.830;2023-11-18T09:16:25;4.20;99.90
67870;DHT22;54673;52.262;6.830;2023-11-18T09:18:55;3.90;99.90
67870;DHT22;54673;52.262;6.830;2023-11-18T09:21:23;3.90;99.90
67870;DHT22;54673;52.262;6.830;2023-11-18T09:23:51;3.80;99.90
67870;DHT22;54673;52.262;6.830;2023-11-18T09:26:17;4.80;99.90
67870;DHT22;54673;52.262;6.830;2023-11-18T09:28:46;4.20;99.90
67870;DHT22;54673;52.262;6.830;2023-11-18T09:31:14;3.80;99.90
67870;DHT22;54673;52.262;6.830;2023-11-18T09:33:41;4.60;99.90
67870;DHT22;54673;52.262;6.830;2023-11-18T09:36:15;5.40;99.90
67870;DHT22;54673;52.262;6.830;2023-11-18T09:38:46;4.00;99.90
67870;DHT22;54673;52.262;6.830;2023-11-18T09:41:22;4.20;99.90
67870;DHT22;54673;52.262;6.830;2023-11-18T09:43:55;4.10;99.90
67870;DHT22;54673;52.262;6.830;2023-11-18T09:46:26;2.50;99.90
67870;DHT22;54673;52.262;6.830;2023-11-18T09:49:15;4.20;99.90
67870;DHT22;54673;52.262;6.830;2023-11-18T09:51:44;3.20;99.90
67870;DHT22;54673;52.262;6.830;2023-11-18T09:54:26;4.10;99.90
67870;DHT22;54673;52.262;6.830;2023-11-18T09:57:19;2.40;99.90
67870;DHT22;54673;52.262;6.830;2023-11-18T10:00:03;4.10;99.90
67870;DHT22;54673;52.262;6.830;2023-11-18T10:02:45;4.20;99.90
67870;DHT22;54673;52.262;6.830;2023-11-18T10:05:12;4.20;99.90
67870;DHT22;54673;52.262;6.830;2023-11-18T10:07:42;5.10;99.90
67870;DHT22;54673;52.262;6.830;2023-11-18T10:10:10;4.30;99.90
67870;DHT22;54673;52.262;6.830;2023-11-18T10:12:50;4.20;99.90
67870;DHT22;54673;52.262;6.830;2023-11-18T10:15:23;4.30;99.90
67870;DHT22;54673;52.262;6.830;2023-11-18T10:17:49;4.30;99.90
67870;DHT22;54673;52.262;6.830;2023-11-18T10:23:11;5.30;99.90
67870;DHT22;54673;52.262;6.830;2023-11-18T10:25:54;4.30;99.90
67870;DHT22;54673;52.262;6.830;2023-11-18T10:28:25;4.30;99.90
67870;DHT22;54673;52.262;6.830;2023-11-18T10:33:27;4.40;99.90
67870;DHT22;54673;52.262;6.830;2023-11-18T10:35:57;5.70;99.90
67870;DHT22;54673;52.262;6.830;2023-11-18T10:38:23;4.40;99.90
67870;DHT22;54673;52.262;6.830;2023-11-18T10:40:59;4.40;99.90
67870;DHT22;54673;52.262;6.830;2023-11-18T10:43:27;4.50;99.90
67870;DHT22;54673;52.262;6.830;2023-11-18T10:46:06;4.50;99.90
67870;DHT22;54673;52.262;6.830;2023-11-18T10:48:45;4.50;99.90
67870;DHT22;54673;52.262;6.830;2023-11-18T10:51:17;4.50;99.90
67870;DHT22;54673;52.262;6.830;2023-11-18T10:53:47;4.60;99.90
67870;DHT22;54673;52.262;6.830;2023-11-18T10:56:25;4.60;99.90
67870;DHT22;54673;52.262;6.830;2023-11-18T10:58:56;4.70;99.90
67870;DHT22;54673;52.262;6.830;2023-11-18T11:01:33;5.50;99.90
67870;DHT22;54673;52.262;6.830;2023-11-18T11:03:59;6.10;99.90
67870;DHT22;54673;52.262;6.830;2023-11-18T11:06:26;5.30;99.90
67870;DHT22;54673;52.262;6.830;2023-11-18T11:08:57;4.40;99.90
67870;DHT22;54673;52.262;6.830;2023-11-18T11:11:29;5.20;99.90
67870;DHT22;54673;52.262;6.830;2023-11-18T11:14:03;5.80;99.90
67870;DHT22;54673;52.262;6.830;2023-11-18T11:16:40;5.20;99.90
67870;DHT22;54673;52.262;6.830;2023-11-18T11:19:35;5.50;99.90
67870;DHT22;54673;52.262;6.830;2023-11-18T11:22:07;6.10;99.90
67870;DHT22;54673;52.262;6.830;2023-11-18T11:27:14;4.20;99.90
67870;DHT22;54673;52.262;6.830;2023-11-18T11:29:51;4.90;99.90
67870;DHT22;54673;52.262;6.830;2023-11-18T11:32:28;4.80;99.90
67870;DHT22;54673;52.262;6.830;2023-11-18T11:35:12;4.30;99.90
67870;DHT22;54673;52.262;6.830;2023-11-18T11:37:44;4.80;99.90
67870;DHT22;54673;52.262;6.830;2023-11-18T11:40:12;7.30;99.90
67870;DHT22;54673;52.262;6.830;2023-11-18T11:42:50;4.80;99.90
67870;DHT22;54673;52.262;6.830;2023-11-18T11:45:24;4.90;99.90
67870;DHT22;54673;52.262;6.830;2023-11-18T11:47:55;6.10;99.90
67870;DHT22;54673;52.262;6.830;2023-11-18T11:50:57;5.10;99.90
67870;DHT22;54673;52.262;6.830;2023-11-18T11:53:35;4.90;99.90
67870;DHT22;54673;52.262;6.830;2023-11-18T11:56:05;5.00;99.90
67870;DHT22;54673;52.262;6.830;2023-11-18T11:58:35;5.10;99.90
67870;DHT22;54673;52.262;6.830;2023-11-18T12:01:37;5.50;99.90
67870;DHT22;54673;52.262;6.830;2023-11-18T12:04:10;6.10;99.90
67870;DHT22;54673;52.262;6.830;2023-11-18T12:06:48;5.00;99.90
67870;DHT22;54673;52.262;6.830;2023-11-18T12:09:19;5.70;99.90
67870;DHT22;54673;52.262;6.830;2023-11-18T12:11:46;6.20;99.90
67870;DHT22;54673;52.262;6.830;2023-11-18T12:14:15;6.00;99.90
67870;DHT22;54673;52.262;6.830;2023-11-18T12:17:03;5.70;99.90
67870;DHT22;54673;52.262;6.830;2023-11-18T12:19:47;5.10;99.90
67870;DHT22;54673;52.262;6.830;2023-11-18T12:22:18;5.30;99.90
67870;DHT22;54673;52.262;6.830;2023-11-18T12:27:45;5.70;99.90
67870;DHT22;54673;52.262;6.830;2023-11-18T12:33:04;5.20;99.90
67870;DHT22;54673;52.262;6.830;2023-11-18T12:41:39;5.30;99.90
67870;DHT22;54673;52.262;6.830;2023-11-18T12:46:52;5.20;99.90
67870;DHT22;54673;52.262;6.830;2023-11-18T12:49:19;5.30;99.90
67870;DHT22;54673;52.262;6.830;2023-11-18T12:51:57;5.30;99.90
67870;DHT22;54673;52.262;6.830;2023-11-18T12:54:26;6.60;99.90
67870;DHT22;54673;52.262;6.830;2023-11-18T12:56:56;5.30;99.90
67870;DHT22;54673;52.262;6.830;2023-11-18T12:59:43;5.80;99.90
67870;DHT22;54673;52.262;6.830;2023-11-18T13:02:11;5.30;99.90
67870;DHT22;54673;52.262;6.830;2023-11-18T13:04:51;5.40;99.90
67870;DHT22;54673;52.262;6.830;2023-11-18T13:07:23;5.40;99.90
67870;DHT22;54673;52.262;6.830;2023-11-18T13:10:16;5.40;99.90
67870;DHT22;54673;52.262;6.830;2023-11-18T13:12:46;5.40;99.90
67870;DHT22;54673;52.262;6.830;2023-11-18T13:15:12;4.90;99.90
67870;DHT22;54673;52.262;6.830;2023-11-18T13:17:38;5.40;99.90
67870;DHT22;54673;52.262;6.830;2023-11-18T13:20:14;5.40;99.90
67870;DHT22;54673;52.262;6.830;2023-11-18T13:22:44;6.10;99.90
67870;DHT22;54673;52.262;6.830;2023-11-18T13:25:09;5.30;99.90
67870;DHT22;54673;52.262;6.830;2023-11-18T13:27:35;5.30;99.90
67870;DHT22;54673;52.262;6.830;2023-11-18T13:30:01;5.40;99.90
67870;DHT22;54673;52.262;6.830;2023-11-18T13:32:32;5.00;99.90
67870;DHT22;54673;52.262;6.830;2023-11-18T13:35:01;5.00;99.90
67870;DHT22;54673;52.262;6.830;2023-11-18T13:37:29;6.50;99.90
67870;DHT22;54673;52.262;6.830;2023-11-18T13:40:00;5.60;99.90
67870;DHT22;54673;52.262;6.830;2023-11-18T13:42:31;5.00;99.90
67870;DHT22;54673;52.262;6.830;2023-11-18T13:45:21;6.70;99.90
67870;DHT22;54673;52.262;6.830;2023-11-18T13:47:52;5.60;99.90
67870;DHT22;54673;52.262;6.830;2023-11-18T13:50:24;4.90;99.90
67870;DHT22;54673;52.262;6.830;2023-11-18T13:52:55;5.80;99.90
67870;DHT22;54673;52.262;6.830;2023-11-18T13:55:21;7.10;99.90
67870;DHT22;54673;52.262;6.830;2023-11-18T13:58:05;5.10;99.90
67870;DHT22;54673;52.262;6.830;2023-11-18T14:00:40;5.70;99.90
67870;DHT22;54673;52.262;6.830;2023-11-18T14:13:30;5.70;99.90
67870;DHT22;54673;52.262;6.830;2023-11-18T14:16:12;5.70;99.90
67870;DHT22;54673;52.262;6.830;2023-11-18T14:18:50;6.60;99.90
67870;DHT22;54673;52.262;6.830;2023-11-18T14:21:19;5.80;99.90
67870;DHT22;54673;52.262;6.830;2023-11-18T14:23:45;5.80;99.90
67870;DHT22;54673;52.262;6.830;2023-11-18T14:26:57;5.30;99.90
67870;DHT22;54673;52.262;6.830;2023-11-18T14:29:24;5.80;99.90
67870;DHT22;54673;52.262;6.830;2023-11-18T14:31:57;5.90;99.90
67870;DHT22;54673;52.262;6.830;2023-11-18T14:34:45;6.10;99.90
67870;DHT22;54673;52.262;6.830;2023-11-18T14:37:14;6.60;99.90
67870;DHT22;54673;52.262;6.830;2023-11-18T14:39:40;5.90;99.90
67870;DHT22;54673;52.262;6.830;2023-11-18T14:42:06;5.80;99.90
67870;DHT22;54673;52.262;6.830;2023-11-18T14:44:32;6.70;99.90
67870;DHT22;54673;52.262;6.830;2023-11-18T14:46:57;5.90;99.90
67870;DHT22;54673;52.262;6.830;2023-11-18T14:49:25;7.00;99.90
67870;DHT22;54673;52.262;6.830;2023-11-18T14:51:56;4.90;99.90
67870;DHT22;54673;52.262;6.830;2023-11-18T14:54:22;5.20;99.90
67870;DHT22;54673;52.262;6.830;2023-11-18T15:00:18;6.10;99.90
67870;DHT22;54673;52.262;6.830;2023-11-18T15:03:01;5.20;99.90
67870;DHT22;54673;52.262;6.830;2023-11-18T15:05:29;5.90;99.90
67870;DHT22;54673;52.262;6.830;2023-11-18T15:07:59;6.30;99.90
67870;DHT22;54673;52.262;6.830;2023-11-18T15:10:32;6.00;99.90
67870;DHT22;54673;52.262;6.830;2023-11-18T15:20:49;6.10;99.90
67870;DHT22;54673;52.262;6.830;2023-11-18T15:23:16;6.30;99.90
67870;DHT22;54673;52.262;6.830;2023-11-18T15:25:48;7.10;99.90
67870;DHT22;54673;52.262;6.830;2023-11-18T15:28:20;6.10;99.90
67870;DHT22;54673;52.262;6.830;2023-11-18T15:30:46;7.20;99.90
67870;DHT22;54673;52.262;6.830;2023-11-18T15:33:12;6.60;99.90
67870;DHT22;54673;52.262;6.830;2023-11-18T15:35:40;7.00;99.90
67870;DHT22;54673;52.262;6.830;2023-11-18T15:38:09;7.60;99.90
67870;DHT22;54673;52.262;6.830;2023-11-18T15:40:37;5.00;99.90
67870;DHT22;54673;52.262;6.830;2023-11-18T15:43:04;6.70;99.90
67870;DHT22;54673;52.262;6.830;2023-11-18T15:45:32;6.80;99.90
67870;DHT22;54673;52.262;6.830;2023-11-18T15:47:59;7.70;99.90
67870;DHT22;54673;52.262;6.830;2023-11-18T15:50:26;6.00;99.90
67870;DHT22;54673;52.262;6.830;2023-11-18T15:52:54;7.10;99.90
67870;DHT22;54673;52.262;6.830;2023-11-18T15:55:21;6.90;99.90
67870;DHT22;54673;52.262;6.830;2023-11-18T15:57:49;6.70;99.90
67870;DHT22;54673;52.262;6.830;2023-11-18T16:00:26;6.50;99.90
67870;DHT22;54673;52.262;6.830;2023-11-18T16:02:57;7.00;99.90
67870;DHT22;54673;52.262;6.830;2023-11-18T16:05:26;6.00;99.90
67870;DHT22;54673;52.262;6.830;2023-11-18T16:07:54;6.10;99.90
67870;DHT22;54673;52.262;6.830;2023-11-18T16:10:21;7.00;99.90
67870;DHT22;54673;52.262;6.830;2023-11-18T16:12:51;6.20;99.90
67870;DHT22;54673;52.262;6.830;2023-11-18T16:15:24;7.10;99.90
67870;DHT22;54673;52.262;6.830;2023-11-18T16:17:51;6.20;99.90
67870;DHT22;54673;52.262;6.830;2023-11-18T16:20:20;7.20;99.90
67870;DHT22;54673;52.262;6.830;2023-11-18T16:22:47;6.50;99.90
67870;DHT22;54673;52.262;6.830;2023-11-18T16:25:14;6.40;99.90
67870;DHT22;54673;52.262;6.830;2023-11-18T16:27:44;7.00;99.90
67870;DHT22;54673;52.262;6.830;2023-11-18T16:30:10;6.30;99.90
67870;DHT22;54673;52.262;6.830;2023-11-18T16:32:36;6.30;99.90
67870;DHT22;54673;52.262;6.830;2023-11-18T16:35:02;6.90;99.90
67870;DHT22;54673;52.262;6.830;2023-11-18T16:37:28;6.30;99.90
67870;DHT22;54673;52.262;6.830;2023-11-18T16:39:54;6.90;99.90
67870;DHT22;54673;52.262;6.830;2023-11-18T16:42:19;7.00;99.90
67870;DHT22;54673;52.262;6.830;2023-11-18T16:44:49;6.50;99.90
67870;DHT22;54673;52.262;6.830;2023-11-18T16:47:14;5.90;99.90
67870;DHT22;54673;52.262;6.830;2023-11-18T16:49:41;5.80;99.90